Flight Track Log - Related Links

Times and Time Zones

All times are in EDT time to prevent confusion due to time zone crossing. See the UPS219 flight status page for this flight to view local times or setup timezone preferences in your user account.

Time Position Orientation Groundspeed Altitude Reporting Facility
EDT Latitude Longitude Course Direction KTS MPH feet Rate Location/Type
Tue 03:42:17 AM 38.1600 -85.7400 169° South 167 192 1,200  Level FlightAware ADS-B
Tue 03:42:42 AM 38.1410 -85.7330 164° South 177 204 2,600 2,400 Climbing FlightAware ADS-B
Tue 03:43:12 AM 38.1130 -85.7220 163° South 228 262 3,400 1,855 Climbing FlightAware ADS-B
Tue 03:43:37 AM 38.0880 -85.7110 161° South 252 290 4,300 2,100 Climbing FlightAware ADS-B
Tue 03:43:52 AM 38.0730 -85.6970 144° Southeast 273 314 4,800 2,000 Climbing FlightAware ADS-B
Tue 03:44:07 AM 38.0650 -85.6760 116° Southeast 284 327 5,300 2,800 Climbing FlightAware ADS-B
Tue 03:44:22 AM 38.0640 -85.6500 93° East 281 323 6,200 3,200 Climbing FlightAware ADS-B
Tue 03:44:37 AM 38.0710 -85.6290 67° East 281 323 6,900 3,300 Climbing FlightAware ADS-B
Tue 03:45:02 AM 38.0950 -85.6000 44° Northeast 275 316 8,400 2,945 Climbing FlightAware ADS-B
Tue 03:45:32 AM 38.1260 -85.5710 36° Northeast 284 327 9,600 2,400 Climbing FlightAware ADS-B
Tue 03:46:12 AM 38.1680 -85.5300 38° Northeast 298 343 11,200 1,976 Climbing FlightAware ADS-B
Tue 03:46:57 AM 38.2210 -85.4770 38° Northeast 358 412 12,400 1,714 Climbing FlightAware ADS-B
Tue 03:47:22 AM 38.2480 -85.4290 54° Northeast 394 453 13,200 2,743 Climbing FlightAware ADS-B
Tue 03:48:07 AM 38.2810 -85.3330 66° East 411 473 15,600 3,106 Climbing FlightAware ADS-B
Tue 03:48:47 AM 38.3130 -85.2440 65° Northeast 430 495 17,600 2,850 Climbing FlightAware ADS-B
Tue 03:49:27 AM 38.3450 -85.1500 67° East 446 513 19,400 2,682 Climbing FlightAware ADS-B
Tue 03:50:12 AM 38.3840 -85.0370 66° East 463 533 21,400 2,541 Climbing FlightAware ADS-B
Tue 03:50:52 AM 38.4200 -84.9340 66° East 479 551 23,000 2,250 Climbing FlightAware ADS-B
Tue 03:51:32 AM 38.4540 -84.8320 67° East 491 565 24,400 2,047 Climbing FlightAware ADS-B
Tue 03:52:17 AM 38.4930 -84.7200 66° East 503 579 25,900 1,125 Climbing FlightAware ADS-B
Tue 03:52:52 AM 38.5240 -84.6300 66° East 503 579 25,900  Level FlightAware ADS-B
Tue 03:53:42 AM 38.5650 -84.5140 66° East 503 579 25,900  Level FlightAware ADS-B
Tue 03:54:22 AM 38.5970 -84.4220 66° East 503 579 25,900  Level FlightAware ADS-B
Tue 03:55:02 AM 38.6290 -84.3300 66° East 503 579 25,900  Level FlightAware ADS-B
Tue 03:55:42 AM 38.6610 -84.2370 66° East 503 579 25,900 2,951 Level FlightAware ADS-B
Tue 03:58:07 AM 38.8210 -83.7500 67° East 505 581 35,000 3,033 Climbing FlightAware ADS-B
Tue 03:58:42 AM 38.8490 -83.6660 67° East 505 581 35,000  Level FlightAware ADS-B
Tue 03:59:27 AM 38.8930 -83.5310 67° East 503 579 35,000  Level FlightAware ADS-B
Tue 04:00:12 AM 38.9350 -83.4030 67° East 504 580 35,000  Level FlightAware ADS-B
Tue 04:00:37 AM 38.9570 -83.3360 67° East 504 580 35,000  Level FlightAware ADS-B
Tue 04:01:22 AM 38.9970 -83.2130 67° East 505 581 35,000  Level FlightAware ADS-B
Tue 04:02:02 AM 39.0330 -83.1030 67° East 506 582 35,000  Level FlightAware ADS-B
Tue 04:02:42 AM 39.0690 -82.9920 67° East 506 582 35,000  Level FlightAware ADS-B
Tue 04:03:42 AM 39.1230 -82.8250 67° East 506 582 35,000  Level FlightAware ADS-B
Tue 04:04:22 AM 39.1600 -82.7110 67° East 507 583 35,000  Level FlightAware ADS-B
Tue 04:05:02 AM 39.1950 -82.6000 68° East 507 583 35,000  Level FlightAware ADS-B
Tue 04:05:47 AM 39.2340 -82.4770 68° East 507 583 35,000  Level FlightAware ADS-B
Tue 04:06:27 AM 39.2700 -82.3640 68° East 508 585 35,000  Level FlightAware ADS-B
Tue 04:07:12 AM 39.3100 -82.2370 68° East 508 585 35,000  Level FlightAware ADS-B
Tue 04:07:52 AM 39.3460 -82.1240 68° East 508 585 35,000  Level FlightAware ADS-B
Tue 04:08:37 AM 39.3850 -82.0000 68° East 508 585 35,000  Level FlightAware ADS-B
Tue 04:09:17 AM 39.4200 -81.8870 68° East 508 585 35,000  Level FlightAware ADS-B
Tue 04:09:57 AM 39.4540 -81.7760 68° East 510 587 35,000  Level FlightAware ADS-B
Tue 04:10:42 AM 39.4830 -81.6390 75° East 514 592 35,000  Level FlightAware ADS-B
Tue 04:11:27 AM 39.4990 -81.5050 81° East 514 592 35,000  Level FlightAware ADS-B
Tue 04:12:07 AM 39.5140 -81.3860 81° East 514 592 35,000  Level FlightAware ADS-B
Tue 04:12:47 AM 39.5280 -81.2640 81° East 514 592 35,000  Level FlightAware ADS-B
Tue 04:13:32 AM 39.5430 -81.1220 82° East 514 592 35,000  Level FlightAware ADS-B
Tue 04:14:12 AM 39.5560 -81.0060 82° East 512 589 35,000  Level FlightAware ADS-B
Tue 04:14:57 AM 39.5700 -80.8680 82° East 512 589 35,000  Level FlightAware ADS-B
Tue 04:15:37 AM 39.5830 -80.7480 82° East 511 588 35,000  Level FlightAware ADS-B
Tue 04:16:22 AM 39.5990 -80.6080 82° East 510 587 35,000  Level FlightAware ADS-B
Tue 04:17:02 AM 39.6130 -80.4930 81° East 511 588 35,000  Level FlightAware ADS-B
Tue 04:17:32 AM 39.6210 -80.4290 81° East 511 588 35,000  Level FlightAware ADS-B
Tue 04:18:22 AM 39.6410 -80.2640 81° East 510 587 35,000  Level FlightAware ADS-B
Tue 04:19:07 AM 39.6580 -80.1140 82° East 511 588 35,000  Level FlightAware ADS-B
Tue 04:19:47 AM 39.6720 -79.9940 81° East 511 588 35,000  Level FlightAware ADS-B
Tue 04:20:32 AM 39.6880 -79.8570 81° East 511 588 35,000  Level FlightAware ADS-B
Tue 04:21:12 AM 39.7020 -79.7360 81° East 511 588 35,000  Level FlightAware ADS-B
Tue 04:21:57 AM 39.7170 -79.5980 82° East 511 588 35,000  Level FlightAware ADS-B
Tue 04:22:37 AM 39.7300 -79.4800 82° East 510 587 35,000  Level FlightAware ADS-B
Tue 04:23:17 AM 39.7440 -79.3550 82° East 509 586 35,000  Level FlightAware ADS-B
Tue 04:24:02 AM 39.7590 -79.2220 82° East 508 585 35,000  Level FlightAware ADS-B
Tue 04:24:42 AM 39.7720 -79.0990 82° East 507 583 35,000  Level FlightAware ADS-B
Tue 04:25:27 AM 39.7870 -78.9630 82° East 508 585 35,000  Level FlightAware ADS-B
Tue 04:26:07 AM 39.7990 -78.8440 82° East 509 586 35,000  Level FlightAware ADS-B
Tue 04:26:47 AM 39.8110 -78.7250 82° East 509 586 35,000  Level FlightAware ADS-B
Tue 04:27:59 AM 39.8350 -78.4971 82° East 508 585 35,000  Level FlightAware ADS-B
Tue 04:28:29 AM 39.8443 -78.4049 82° East 505 581 35,000  Level FlightAware ADS-B
Tue 04:29:00 AM 39.8537 -78.3121 82° East 504 580 35,000  Level FlightAware ADS-B
Tue 04:29:31 AM 39.8630 -78.2196 83° East 504 580 35,000  Level FlightAware ADS-B
Tue 04:30:01 AM 39.8719 -78.1293 83° East 505 581 35,000  Level FlightAware ADS-B
Tue 04:30:32 AM 39.8811 -78.0371 83° East 505 581 35,000  Level FlightAware ADS-B
Tue 04:31:02 AM 39.8899 -77.9453 83° East 505 581 35,000  Level FlightAware ADS-B
Tue 04:31:32 AM 39.8987 -77.8550 83° East 506 582 35,000  Level FlightAware ADS-B
Tue 04:32:04 AM 39.9077 -77.7608 83° East 507 583 35,000  Level FlightAware ADS-B
Tue 04:32:36 AM 39.9172 -77.6619 83° East 508 585 35,000  Level FlightAware ADS-B
Tue 04:33:07 AM 39.9259 -77.5698 83° East 509 586 35,000 -295 Level FlightAware ADS-B
Tue 04:33:37 AM 39.9344 -77.4783 83° East 500 575 34,700 -1,800 Descending FlightAware ADS-B
Tue 04:34:07 AM 39.9429 -77.3879 83° East 506 582 33,200 -2,656 Descending FlightAware ADS-B
Tue 04:34:38 AM 39.9512 -77.2962 83° East 497 572 32,000 -2,852 Descending FlightAware ADS-B
Tue 04:35:08 AM 39.9596 -77.2063 83° East 497 572 30,300 -3,700 Descending FlightAware ADS-B
Tue 04:35:38 AM 39.9677 -77.1163 83° East 500 575 28,300 -3,800 Descending FlightAware ADS-B
Tue 04:36:08 AM 39.9755 -77.0272 83° East 496 571 26,500 -3,246 Descending FlightAware ADS-B
Tue 04:36:39 AM 39.9835 -76.9359 83° East 494 568 25,000 -2,754 Descending FlightAware ADS-B
Tue 04:37:09 AM 39.9912 -76.8477 83° East 487 560 23,700 -2,656 Descending FlightAware ADS-B
Tue 04:37:40 AM 39.9989 -76.7600 83° East 480 552 22,300 -2,636 Descending FlightAware ADS-B
Tue 04:38:15 AM 40.0077 -76.6598 83° East 471 542 20,800 -2,585 Descending FlightAware ADS-B
Tue 04:38:45 AM 40.0150 -76.5745 84° East 463 533 19,500 -2,656 Descending FlightAware ADS-B
Tue 04:39:16 AM 40.0221 -76.4919 84° East 458 527 18,100 -2,754 Descending FlightAware ADS-B
Tue 04:39:46 AM 40.0291 -76.4088 84° East 438 504 16,700 -2,613 Descending FlightAware ADS-B
Tue 04:40:18 AM 40.0354 -76.3283 84° East 430 495 15,400 -2,441 Descending FlightAware ADS-B
Tue 04:40:45 AM 40.0414 -76.2592 84° East 419 482 14,300 -2,421 Descending FlightAware ADS-B
Tue 04:41:15 AM 40.0475 -76.1831 84° East 417 480 13,100 -2,361 Descending FlightAware ADS-B
Tue 04:41:46 AM 40.0535 -76.1098 84° East 401 461 11,900 -2,100 Descending FlightAware ADS-B
Tue 04:42:15 AM 40.0592 -76.0394 84° East 387 445 11,000 -1,737 Descending FlightAware ADS-B
Tue 04:42:24 AM 40.0604 -76.0192 86° East 379 436 10,800 -1,333 Descending FlightAware ADS-B
Tue 04:42:33 AM 40.0599 -75.9989 92° East 370 426 10,600 -1,875 Descending FlightAware ADS-B
Tue 04:42:40 AM 40.0584 -75.9845 98° East 365 420 10,300 -2,118 Descending FlightAware ADS-B
Tue 04:42:50 AM 40.0543 -75.9636 104° East 355 409 10,000 -1,059 Descending FlightAware ADS-B
Tue 04:42:57 AM 40.0502 -75.9497 111° Southeast 347 399 10,000 -462 Level FlightAware ADS-B
Tue 04:43:03 AM 40.0462 -75.9385 115° Southeast 337 388 9,900 -500 Descending FlightAware ADS-B
Tue 04:43:09 AM 40.0420 -75.9284 119° Southeast 326 375 9,900 -333 Level FlightAware ADS-B
Tue 04:43:21 AM 40.0326 -75.9089 122° Southeast 305 351 9,800 -667 Descending FlightAware ADS-B
Tue 04:43:36 AM 40.0221 -75.8862 121° Southeast 285 328 9,600 -1,400 Descending FlightAware ADS-B
Tue 04:43:51 AM 40.0115 -75.8642 122° Southeast 277 319 9,100 -1,929 Descending FlightAware ADS-B
Tue 04:44:04 AM 40.0027 -75.8459 122° Southeast 271 312 8,700 -2,000 Descending FlightAware ADS-B
Tue 04:44:12 AM 39.9973 -75.8347 122° Southeast 269 310 8,400 -2,000 Descending FlightAware ADS-B
Tue 04:44:25 AM 39.9887 -75.8173 123° Southeast 265 305 8,000 -2,069 Descending FlightAware ADS-B
Tue 04:44:41 AM 39.9786 -75.7969 123° Southeast 264 304 7,400 -2,222 Descending FlightAware ADS-B
Tue 04:44:52 AM 39.9713 -75.7822 123° Southeast 264 304 7,000 -2,077 Descending FlightAware ADS-B
Tue 04:45:07 AM 39.9614 -75.7618 122° Southeast 260 299 6,500 -1,935 Descending FlightAware ADS-B
Tue 04:45:23 AM 39.9510 -75.7413 123° Southeast 253 291 6,000 -1,935 Descending FlightAware ADS-B
Tue 04:45:38 AM 39.9416 -75.7223 123° Southeast 247 284 5,500 -2,000 Descending FlightAware ADS-B
Tue 04:45:53 AM 39.9323 -75.7036 123° Southeast 245 282 5,000 -2,000 Descending FlightAware ADS-B
Tue 04:46:08 AM 39.9231 -75.6848 123° Southeast 241 277 4,500 -1,714 Descending FlightAware ADS-B
Tue 04:46:21 AM 39.9156 -75.6693 122° Southeast 237 273 4,200 -1,500 Descending FlightAware ADS-B
Tue 04:46:32 AM 39.9090 -75.6558 123° Southeast 236 272 3,900 -1,304 Descending FlightAware ADS-B
Tue 04:46:44 AM 39.9019 -75.6415 123° Southeast 232 267 3,700 -1,071 Descending FlightAware ADS-B
Tue 04:47:00 AM 39.8931 -75.6235 123° Southeast 230 265 3,400 -1,161 Descending FlightAware ADS-B
Tue 04:47:15 AM 39.8843 -75.6058 123° Southeast 229 264 3,100 -1,200 Descending FlightAware ADS-B
Tue 04:47:30 AM 39.8756 -75.5880 122° Southeast 227 261 2,800 -667 Descending FlightAware ADS-B
Tue 04:47:42 AM 39.8689 -75.5745 123° Southeast 219 252 2,800 -214 Level FlightAware ADS-B
Tue 04:47:58 AM 39.8606 -75.5576 123° Southeast 204 235 2,700 -774 Descending FlightAware ADS-B
Tue 04:48:13 AM 39.8528 -75.5419 123° Southeast 203 234 2,400 -1,154 Descending FlightAware ADS-B
Tue 04:48:24 AM 39.8475 -75.5314 123° Southeast 205 236 2,200 -1,200 Descending FlightAware ADS-B
Tue 04:48:38 AM 39.8400 -75.5162 123° Southeast 203 234 1,900 -960 Descending FlightAware ADS-B
Tue 04:48:49 AM 39.8344 -75.5049 123° Southeast 199 229 1,800 -231 Descending FlightAware ADS-B
Tue 04:49:04 AM 39.8274 -75.4907 123° Southeast 185 213 1,800  Level FlightAware ADS-B
Tue 04:49:08 AM 39.8259 -75.4873 120° Southeast 181 208 1,800  Level FlightAware ADS-B
Tue 04:49:11 AM 39.8246 -75.4836 115° Southeast 180 207 1,800  Level FlightAware ADS-B
Tue 04:49:14 AM 39.8239 -75.4805 106° East 180 207 1,800  Level FlightAware ADS-B
Tue 04:49:18 AM 39.8234 -75.4767 100° East 179 206 1,800  Level FlightAware ADS-B
Tue 04:49:21 AM 39.8233 -75.4733 92° East 181 208 1,800  Level FlightAware ADS-B
Tue 04:49:24 AM 39.8234 -75.4699 88° East 182 209 1,800  Level FlightAware ADS-B
Tue 04:49:33 AM 39.8242 -75.4601 84° East 185 213 1,800  Level FlightAware ADS-B
Tue 04:49:37 AM 39.8247 -75.4557 82° East 188 216 1,800  Level FlightAware ADS-B
Tue 04:49:42 AM 39.8255 -75.4508 78° East 190 219 1,800  Level FlightAware ADS-B
Tue 04:49:48 AM 39.8269 -75.4437 76° East 186 214 1,800  Level FlightAware ADS-B
Tue 04:49:54 AM 39.8281 -75.4379 75° East 183 211 1,800  Level FlightAware ADS-B
Tue 04:50:06 AM 39.8307 -75.4257 74° East 167 192 1,800  Level FlightAware ADS-B
Tue 04:50:12 AM 39.8319 -75.4192 76° East 165 190 1,800 -300 Level FlightAware ADS-B
Tue 04:50:26 AM 39.8345 -75.4065 75° East 149 171 1,700 -231 Descending FlightAware ADS-B
Tue 04:50:38 AM 39.8365 -75.3964 76° East 148 170 1,700 -250 Level FlightAware ADS-B
Tue 04:50:50 AM 39.8386 -75.3862 75° East 147 169 1,600 -667 Descending FlightAware ADS-B
Tue 04:51:05 AM 39.8411 -75.3733 76° East 143 165 1,400 -889 Descending FlightAware ADS-B
Tue 04:51:17 AM 39.8431 -75.3635 75° East 140 161 1,200 -900 Descending FlightAware ADS-B
Tue 04:51:25 AM 39.8444 -75.3572 75° East 132 152 1,100 -500 Descending FlightAware ADS-B
Tue 04:51:29 AM 39.8451 -75.3540 74° East 131 151 1,100 -667 Level FlightAware ADS-B
Tue 04:51:34 AM 39.8459 -75.3503 74° East 131 151 1,000 -800 Descending FlightAware ADS-B
Tue 04:51:44 AM 39.8472 -75.3433 76° East 130 150 900 -632 Descending FlightAware ADS-B
Tue 04:51:53 AM 39.8487 -75.3358 75° East 132 152 800 -706 Descending FlightAware ADS-B
Tue 04:52:01 AM 39.8499 -75.3299 75° East 133 153 700 -750 Descending FlightAware ADS-B
Tue 04:52:09 AM 39.8511 -75.3238 76° East 132 152 600 -667 Descending FlightAware ADS-B
Tue 04:52:19 AM 39.8527 -75.3159 75° East 132 152 500 -600 Descending FlightAware ADS-B
Tue 04:52:29 AM 39.8541 -75.3087 76° East 131 151 400 -750 Descending FlightAware ADS-B
Tue 04:52:35 AM 39.8550 -75.3040 76° East 131 151 300 -1,091 Descending FlightAware ADS-B
Tue 04:52:40 AM 39.8559 -75.2997 75° East 133 153 200  Descending FlightAware ADS-B
Tue 04:53:12 AM 39.8550 -75.3030 250° West 131 151 300 -97 Climbing FlightAware ADS-B
Tue 04:53:42 AM 39.8580 -75.2880 75° East 132 152 100 -400 Descending FlightAware ADS-B
Tue 04:53:57 AM 39.8600 -75.2790 74° East 135 155 -400 Descending FlightAware ADS-B

Login

Don't have an account? Register now (free) for customized features, flight alerts, and more!